createdAt,value
2022-10-08T00:00:43.816Z,2.20
2022-10-08T00:03:11.375Z,2.50
2022-10-08T00:05:38.971Z,2.58
2022-10-08T00:08:06.760Z,2.45
2022-10-08T00:10:34.355Z,2.20
2022-10-08T00:13:01.971Z,2.35
2022-10-08T00:15:30.917Z,2.47
2022-10-08T00:17:58.484Z,3.58
2022-10-08T00:20:26.052Z,2.53
2022-10-08T00:22:53.625Z,2.25
2022-10-08T00:25:21.167Z,2.28
2022-10-08T00:27:48.545Z,2.22
2022-10-08T00:30:16.205Z,2.60
2022-10-08T00:32:45.415Z,2.00
2022-10-08T00:35:13.211Z,2.10
2022-10-08T00:37:40.819Z,2.88
2022-10-08T00:40:09.007Z,1.90
2022-10-08T00:42:36.572Z,2.25
2022-10-08T00:45:04.451Z,2.88
2022-10-08T00:47:41.660Z,2.40
2022-10-08T00:50:17.101Z,2.22
2022-10-08T00:52:46.836Z,2.17
2022-10-08T00:55:15.685Z,2.35
2022-10-08T00:57:43.265Z,2.13
2022-10-08T01:00:12.080Z,2.58
2022-10-08T01:02:39.604Z,2.50
2022-10-08T01:05:08.170Z,2.10
2022-10-08T01:07:41.830Z,2.72
2022-10-08T01:10:13.980Z,2.38
2022-10-08T01:12:45.712Z,1.92
2022-10-08T01:15:18.907Z,2.20
2022-10-08T01:17:50.506Z,1.70
2022-10-08T01:20:37.305Z,2.40
2022-10-08T01:23:29.681Z,2.28
2022-10-08T01:25:59.888Z,2.30
2022-10-08T01:28:31.390Z,1.95
2022-10-08T01:31:01.407Z,2.15
2022-10-08T01:33:30.967Z,2.55
2022-10-08T01:35:59.259Z,2.30
2022-10-08T01:38:28.856Z,2.45
2022-10-08T01:40:56.421Z,2.33
2022-10-08T01:43:24.006Z,2.67
2022-10-08T01:45:54.972Z,1.75
2022-10-08T01:48:27.033Z,2.55
2022-10-08T01:50:56.308Z,2.33
2022-10-08T01:53:25.291Z,2.80
2022-10-08T01:55:54.700Z,2.28
2022-10-08T01:58:24.683Z,1.95
2022-10-08T02:00:53.755Z,2.17
2022-10-08T02:03:21.279Z,2.08
2022-10-08T02:05:50.363Z,2.05
2022-10-08T02:08:17.858Z,2.45
2022-10-08T02:10:45.418Z,2.10
2022-10-08T02:13:12.989Z,2.33
2022-10-08T02:15:43.833Z,1.90
2022-10-08T02:18:15.243Z,1.90
2022-10-08T02:20:45.252Z,2.13
2022-10-08T02:23:16.500Z,2.45
2022-10-08T02:25:47.013Z,2.05
2022-10-08T02:28:18.523Z,2.28
2022-10-08T02:30:48.307Z,2.00
2022-10-08T02:33:19.522Z,2.63
2022-10-08T02:35:50.033Z,2.10
2022-10-08T02:38:19.241Z,1.83
2022-10-08T02:40:49.340Z,2.00
2022-10-08T02:43:20.118Z,1.90
2022-10-08T02:45:50.729Z,2.30
2022-10-08T02:48:24.219Z,2.17
2022-10-08T02:50:51.708Z,2.20
2022-10-08T02:53:19.293Z,2.10
2022-10-08T02:55:50.984Z,2.30
2022-10-08T02:58:18.524Z,1.80
2022-10-08T03:00:49.798Z,2.15
2022-10-08T03:03:21.626Z,2.40
2022-10-08T03:05:49.249Z,2.25
2022-10-08T03:08:16.783Z,2.15
2022-10-08T03:10:44.453Z,1.90
2022-10-08T03:13:11.972Z,2.15
2022-10-08T03:15:39.604Z,3.45
2022-10-08T03:18:08.705Z,2.70
2022-10-08T03:20:42.530Z,2.20
2022-10-08T03:23:10.095Z,2.97
2022-10-08T03:25:37.549Z,2.25
2022-10-08T03:28:05.139Z,2.20
2022-10-08T03:30:32.792Z,2.28
2022-10-08T03:33:00.541Z,2.20
2022-10-08T03:35:28.027Z,1.90
2022-10-08T03:37:57.191Z,2.13
2022-10-08T03:40:25.040Z,2.28
2022-10-08T03:42:52.527Z,3.03
2022-10-08T03:45:20.145Z,2.30
2022-10-08T03:47:51.161Z,2.20
2022-10-08T03:50:18.899Z,2.05
2022-10-08T03:52:46.675Z,2.20
2022-10-08T03:55:16.197Z,2.53
2022-10-08T03:57:43.730Z,2.17
2022-10-08T04:00:12.975Z,2.22
2022-10-08T04:02:40.577Z,2.03
2022-10-08T04:05:08.886Z,2.65
2022-10-08T04:07:36.476Z,2.10
2022-10-08T04:10:05.002Z,2.40
2022-10-08T04:12:34.005Z,1.88
2022-10-08T04:15:01.522Z,2.35
2022-10-08T04:17:29.057Z,2.00
2022-10-08T04:19:56.583Z,1.92
2022-10-08T04:22:24.374Z,2.13
2022-10-08T04:24:51.859Z,2.33
2022-10-08T04:27:19.438Z,2.55
2022-10-08T04:29:48.456Z,2.33
2022-10-08T04:32:16.738Z,1.98
2022-10-08T04:34:44.272Z,2.08
2022-10-08T04:37:11.846Z,2.38
2022-10-08T04:39:39.520Z,1.90
2022-10-08T04:42:07.044Z,2.45
2022-10-08T04:44:34.643Z,2.22
2022-10-08T04:47:03.626Z,2.88
2022-10-08T04:49:31.215Z,2.63
2022-10-08T04:51:58.787Z,1.55
2022-10-08T04:54:26.573Z,1.77
2022-10-08T04:56:54.089Z,2.13
2022-10-08T04:59:21.759Z,2.70
2022-10-08T05:01:49.300Z,2.08
2022-10-08T05:04:18.304Z,1.83
2022-10-08T05:06:45.862Z,2.10
2022-10-08T05:09:13.472Z,2.50
2022-10-08T05:11:41.062Z,2.03
2022-10-08T05:14:08.741Z,2.00
2022-10-08T05:16:36.636Z,2.40
2022-10-08T05:19:04.132Z,1.95
2022-10-08T05:21:33.407Z,2.70
2022-10-08T05:24:01.976Z,2.20
2022-10-08T05:26:56.422Z,2.08
2022-10-08T05:29:18.620Z,1.90
2022-10-08T05:31:46.151Z,2.17
2022-10-08T05:34:13.862Z,2.00
2022-10-08T05:36:42.898Z,2.30
2022-10-08T05:39:10.886Z,2.78
2022-10-08T05:41:38.459Z,2.40
2022-10-08T05:44:06.583Z,2.08
2022-10-08T05:46:35.009Z,1.88
2022-10-08T05:49:04.317Z,1.90
2022-10-08T05:51:31.941Z,2.28
2022-10-08T05:54:01.319Z,1.83
2022-10-08T05:56:29.306Z,1.98
2022-10-08T05:58:57.062Z,2.10
2022-10-08T06:01:26.009Z,1.88
2022-10-08T06:03:54.526Z,2.22
2022-10-08T06:06:22.449Z,2.13
2022-10-08T06:08:53.779Z,2.35
2022-10-08T06:11:22.781Z,2.03
2022-10-08T06:13:52.984Z,1.88
2022-10-08T06:16:20.718Z,1.40
2022-10-08T06:18:48.909Z,2.38
2022-10-08T06:21:17.509Z,2.17
2022-10-08T06:23:46.570Z,1.90
2022-10-08T06:26:14.309Z,1.67
2022-10-08T06:28:43.595Z,1.85
2022-10-08T06:31:11.361Z,2.03
2022-10-08T06:33:39.136Z,2.38
2022-10-08T06:36:08.174Z,2.08
2022-10-08T06:38:35.907Z,2.13
2022-10-08T06:41:03.392Z,2.45
2022-10-08T06:43:30.924Z,2.03
2022-10-08T06:46:03.485Z,2.33
2022-10-08T06:48:31.160Z,1.88
2022-10-08T06:50:59.634Z,2.10
2022-10-08T06:53:27.115Z,1.77
2022-10-08T06:55:57.952Z,1.92
2022-10-08T06:58:25.973Z,2.15
2022-10-08T07:01:04.054Z,1.75
2022-10-08T07:03:31.667Z,2.35
2022-10-08T07:06:00.801Z,1.95
2022-10-08T07:08:28.609Z,1.98
2022-10-08T07:10:56.275Z,2.00
2022-10-08T07:13:23.855Z,1.92
2022-10-08T07:15:51.427Z,1.83
2022-10-08T07:18:20.535Z,1.73
2022-10-08T07:20:55.132Z,2.33
2022-10-08T07:23:22.746Z,2.13
2022-10-08T07:25:57.104Z,2.20
2022-10-08T07:28:25.289Z,2.10
2022-10-08T07:30:52.863Z,2.28
2022-10-08T07:33:22.109Z,1.70
2022-10-08T07:35:49.700Z,2.05
2022-10-08T07:38:17.276Z,2.42
2022-10-08T07:40:45.153Z,2.47
2022-10-08T07:43:15.487Z,1.85
2022-10-08T07:45:45.473Z,1.63
2022-10-08T07:48:13.162Z,1.90
2022-10-08T07:50:42.340Z,2.50
2022-10-08T07:53:09.858Z,1.70
2022-10-08T07:55:37.433Z,2.15
2022-10-08T07:58:05.123Z,2.55
2022-10-08T08:00:32.742Z,2.00
2022-10-08T08:03:00.354Z,2.80
2022-10-08T08:05:27.979Z,3.20
2022-10-08T08:07:56.993Z,3.00
2022-10-08T08:10:24.614Z,3.03
2022-10-08T08:12:52.215Z,2.97
2022-10-08T08:15:19.711Z,3.38
2022-10-08T08:17:47.212Z,5.45
2022-10-08T08:20:14.912Z,3.10
2022-10-08T08:22:42.414Z,3.92
2022-10-08T08:25:11.657Z,3.75
2022-10-08T08:27:39.311Z,3.42
2022-10-08T08:30:08.230Z,2.65
2022-10-08T08:32:35.752Z,2.97
2022-10-08T08:35:03.467Z,2.42
2022-10-08T08:37:31.103Z,3.30
2022-10-08T08:39:58.690Z,3.10
2022-10-08T08:42:47.255Z,2.50
2022-10-08T08:45:44.840Z,2.78
2022-10-08T08:48:17.053Z,2.92
2022-10-08T08:50:48.573Z,3.13
2022-10-08T08:53:16.639Z,3.00
2022-10-08T08:55:45.148Z,2.40
2022-10-08T08:58:18.857Z,3.15
2022-10-08T09:00:50.556Z,2.22
2022-10-08T09:03:20.471Z,3.00
2022-10-08T09:05:50.395Z,2.47
2022-10-08T09:08:19.294Z,2.75
2022-10-08T09:10:51.575Z,2.35
2022-10-08T09:13:22.142Z,2.97
2022-10-08T09:15:50.140Z,2.65
2022-10-08T09:18:17.602Z,2.75
2022-10-08T09:20:45.205Z,2.90
2022-10-08T09:23:15.548Z,2.88
2022-10-08T09:25:43.522Z,2.50
2022-10-08T09:28:11.224Z,2.88
2022-10-08T09:30:41.601Z,2.25
2022-10-08T09:33:23.822Z,2.40
2022-10-08T09:35:52.424Z,2.20
2022-10-08T09:38:22.410Z,2.53
2022-10-08T09:41:03.811Z,2.80
2022-10-08T09:43:31.604Z,2.20
2022-10-08T09:46:00.691Z,2.85
2022-10-08T09:48:29.480Z,2.35
2022-10-08T09:51:01.705Z,2.85
2022-10-08T09:53:33.966Z,2.63
2022-10-08T09:56:02.811Z,2.17
2022-10-08T09:58:32.349Z,2.63
2022-10-08T10:01:05.333Z,2.17
2022-10-08T10:03:32.978Z,2.80
2022-10-08T10:06:00.767Z,2.40
2022-10-08T10:08:54.667Z,2.83
2022-10-08T10:11:29.635Z,2.90
2022-10-08T10:13:57.199Z,3.15
2022-10-08T10:16:27.473Z,3.13
2022-10-08T10:18:57.818Z,3.10
2022-10-08T10:21:31.297Z,3.50
2022-10-08T10:24:10.289Z,2.92
2022-10-08T10:26:39.020Z,3.05
2022-10-08T10:29:09.567Z,3.30
2022-10-08T10:31:40.430Z,3.15
2022-10-08T10:34:11.360Z,2.83
2022-10-08T10:36:42.200Z,2.80
2022-10-08T10:39:16.696Z,2.40
2022-10-08T10:41:46.726Z,2.53
2022-10-08T10:44:14.582Z,2.25
2022-10-08T10:46:44.911Z,2.80
2022-10-08T10:49:13.783Z,2.70
2022-10-08T10:51:57.751Z,2.20
2022-10-08T10:54:34.743Z,2.10
2022-10-08T10:57:05.311Z,2.08
2022-10-08T10:59:44.749Z,2.08
2022-10-08T11:02:19.672Z,2.30
2022-10-08T11:04:52.395Z,1.85
2022-10-08T11:07:43.837Z,2.40
2022-10-08T11:10:19.499Z,2.00
2022-10-08T11:12:50.185Z,1.60
2022-10-08T11:15:24.038Z,1.65
2022-10-08T11:18:15.193Z,1.90
2022-10-08T11:20:56.215Z,1.67
2022-10-08T11:23:43.978Z,2.20
2022-10-08T11:26:22.476Z,1.92
2022-10-08T11:28:55.586Z,2.22
2022-10-08T11:31:28.385Z,1.75
2022-10-08T11:33:57.535Z,1.90
2022-10-08T11:36:32.815Z,2.28
2022-10-08T11:39:05.276Z,2.30
2022-10-08T11:41:34.938Z,1.75
2022-10-08T11:44:02.960Z,2.00
2022-10-08T11:46:31.007Z,1.50
2022-10-08T11:49:00.998Z,2.05
2022-10-08T11:51:30.774Z,2.28
2022-10-08T11:54:08.133Z,1.40
2022-10-08T11:56:37.659Z,2.22
2022-10-08T11:59:10.345Z,1.80
2022-10-08T12:01:51.289Z,1.67
2022-10-08T12:04:21.698Z,1.50
2022-10-08T12:06:49.321Z,1.50
2022-10-08T12:09:22.644Z,2.10
2022-10-08T12:11:52.249Z,1.40
2022-10-08T12:14:47.047Z,2.13
2022-10-08T12:17:14.689Z,1.58
2022-10-08T12:19:59.149Z,2.00
2022-10-08T12:22:43.333Z,2.42
2022-10-08T12:25:35.582Z,1.73
2022-10-08T12:28:39.907Z,1.58
2022-10-08T12:31:28.947Z,1.83
2022-10-08T12:33:58.649Z,1.67
2022-10-08T12:36:52.584Z,1.17
2022-10-08T12:39:26.889Z,1.95
2022-10-08T12:41:59.464Z,1.70
2022-10-08T12:44:34.385Z,1.50
2022-10-08T12:47:05.203Z,1.17
2022-10-08T12:49:35.710Z,1.80
2022-10-08T12:52:06.734Z,1.20
2022-10-08T12:54:34.323Z,1.23
2022-10-08T12:57:01.985Z,1.40
2022-10-08T12:59:30.204Z,0.90
2022-10-08T13:01:57.813Z,1.40
2022-10-08T13:04:26.723Z,1.20
2022-10-08T13:06:54.621Z,1.48
2022-10-08T13:09:28.913Z,1.30
2022-10-08T13:12:02.132Z,1.30
2022-10-08T13:14:32.004Z,1.50
2022-10-08T13:16:59.558Z,1.42
2022-10-08T13:19:31.572Z,1.20
2022-10-08T13:21:59.620Z,1.35
2022-10-08T13:24:33.466Z,1.00
2022-10-08T13:27:00.915Z,1.10
2022-10-08T13:29:33.599Z,1.40
2022-10-08T13:32:03.796Z,0.90
2022-10-08T13:34:32.767Z,1.30
2022-10-08T13:37:01.603Z,1.38
2022-10-08T13:39:33.078Z,1.48
2022-10-08T13:42:02.070Z,1.35
2022-10-08T13:44:29.667Z,1.08
2022-10-08T13:47:01.373Z,1.00
2022-10-08T13:49:32.942Z,1.52
2022-10-08T13:52:01.226Z,1.10
2022-10-08T13:54:29.632Z,1.40
2022-10-08T13:56:58.647Z,1.00
2022-10-08T13:59:30.492Z,1.00
2022-10-08T14:01:58.836Z,1.45
2022-10-08T14:04:26.574Z,1.13
2022-10-08T14:06:54.997Z,1.23
2022-10-08T14:09:24.142Z,1.38
2022-10-08T14:11:51.960Z,1.45
2022-10-08T14:14:21.279Z,0.77
2022-10-08T14:16:48.848Z,0.80
2022-10-08T14:19:16.438Z,1.00
2022-10-08T14:21:44.137Z,0.95
2022-10-08T14:24:12.153Z,1.10
2022-10-08T14:26:39.810Z,1.02
2022-10-08T14:29:07.405Z,1.00
2022-10-08T14:31:36.454Z,0.93
2022-10-08T14:34:04.064Z,0.98
2022-10-08T14:36:33.359Z,1.00
2022-10-08T14:39:00.957Z,0.63
2022-10-08T14:41:28.557Z,1.40
2022-10-08T14:43:56.279Z,1.10
2022-10-08T14:46:23.963Z,1.00
2022-10-08T14:48:53.146Z,0.90
2022-10-08T14:51:20.733Z,0.73
2022-10-08T14:53:48.282Z,1.10
2022-10-08T14:56:15.942Z,1.17
2022-10-08T14:58:43.600Z,0.98
2022-10-08T15:01:11.049Z,0.80
2022-10-08T15:03:38.720Z,1.05
2022-10-08T15:06:08.112Z,0.90
2022-10-08T15:08:35.598Z,0.95
2022-10-08T15:11:03.436Z,0.88
2022-10-08T15:13:30.918Z,1.10
2022-10-08T15:15:58.517Z,0.82
2022-10-08T15:18:26.175Z,0.93
2022-10-08T15:20:56.426Z,0.90
2022-10-08T15:23:25.669Z,1.13
2022-10-08T15:25:57.231Z,1.65
2022-10-08T15:28:25.038Z,0.70
2022-10-08T15:31:02.121Z,0.85
2022-10-08T15:33:29.752Z,1.02
2022-10-08T15:35:57.340Z,1.10
2022-10-08T15:38:26.351Z,0.95
2022-10-08T15:41:01.506Z,1.10
2022-10-08T15:43:33.085Z,1.00
2022-10-08T15:46:00.691Z,1.20
2022-10-08T15:48:28.345Z,1.30
2022-10-08T15:50:58.823Z,1.30
2022-10-08T15:53:27.807Z,1.10
2022-10-08T15:55:55.636Z,1.15
2022-10-08T15:58:48.999Z,1.02
2022-10-08T16:12:06.998Z,1.45
2022-10-08T16:14:34.625Z,1.75
2022-10-08T16:17:02.205Z,1.25
2022-10-08T16:19:30.139Z,1.60
2022-10-08T16:21:57.769Z,1.00
2022-10-08T16:24:25.317Z,1.45
2022-10-08T16:26:52.964Z,1.08
2022-10-08T16:29:22.012Z,1.08
2022-10-08T16:31:49.593Z,0.88
2022-10-08T16:34:18.200Z,1.27
2022-10-08T16:36:45.833Z,1.52
2022-10-08T16:39:13.685Z,1.33
2022-10-08T16:41:41.436Z,1.58
2022-10-08T16:44:12.593Z,1.15
2022-10-08T16:46:43.401Z,1.35
2022-10-08T16:49:15.673Z,1.52
2022-10-08T16:51:45.997Z,1.17
2022-10-08T16:54:14.951Z,1.20
2022-10-08T16:56:42.680Z,1.20
2022-10-08T16:59:11.759Z,1.42
2022-10-08T17:01:43.058Z,0.93
2022-10-08T17:04:10.659Z,1.05
2022-10-08T17:06:38.435Z,1.42
2022-10-08T17:09:06.032Z,1.10
2022-10-08T17:11:33.790Z,1.08
2022-10-08T17:14:01.593Z,0.98
2022-10-08T17:16:29.810Z,1.05
2022-10-08T17:18:59.588Z,1.20
2022-10-08T17:21:27.379Z,0.80
2022-10-08T17:23:56.724Z,0.90
2022-10-08T17:26:24.388Z,1.00
2022-10-08T17:28:52.119Z,1.13
2022-10-08T17:31:20.834Z,1.00
2022-10-08T17:33:48.519Z,1.15
2022-10-08T17:36:19.095Z,1.27
2022-10-08T17:38:48.119Z,1.50
2022-10-08T17:41:16.826Z,1.20
2022-10-08T17:43:44.577Z,0.90
2022-10-08T17:46:13.527Z,1.45
2022-10-08T17:48:41.321Z,1.20
2022-10-08T17:51:10.288Z,1.25
2022-10-08T17:53:39.408Z,0.73
2022-10-08T17:56:08.831Z,1.10
2022-10-08T17:58:36.347Z,0.90
2022-10-08T18:01:05.815Z,1.60
2022-10-08T18:03:33.464Z,1.20
2022-10-08T18:06:01.068Z,1.38
2022-10-08T18:08:28.936Z,0.95
2022-10-08T18:10:57.981Z,1.63
2022-10-08T18:13:25.493Z,1.30
2022-10-08T18:15:53.156Z,1.33
2022-10-08T18:18:20.739Z,1.20
2022-10-08T18:20:54.907Z,1.48
2022-10-08T18:23:22.674Z,1.40
2022-10-08T18:25:53.771Z,1.25
2022-10-08T18:28:23.345Z,1.90
2022-10-08T18:30:51.061Z,1.48
2022-10-08T18:33:22.715Z,1.90
2022-10-08T18:35:52.413Z,1.67
2022-10-08T18:38:19.946Z,1.27
2022-10-08T18:40:47.483Z,1.60
2022-10-08T18:43:15.074Z,1.83
2022-10-08T18:45:44.159Z,1.65
2022-10-08T18:48:11.664Z,1.58
2022-10-08T18:50:39.239Z,1.50
2022-10-08T18:53:06.810Z,1.70
2022-10-08T18:55:34.450Z,1.63
2022-10-08T18:58:01.987Z,1.70
2022-10-08T19:00:29.535Z,1.88
2022-10-08T19:02:58.737Z,1.95
2022-10-08T19:05:26.498Z,1.65
2022-10-08T19:07:54.048Z,1.63
2022-10-08T19:10:21.536Z,1.83
2022-10-08T19:12:49.311Z,1.60
2022-10-08T19:15:17.051Z,1.58
2022-10-08T19:17:46.186Z,1.92
2022-10-08T19:20:15.434Z,2.22
2022-10-08T19:22:42.920Z,1.85
2022-10-08T19:25:10.560Z,1.67
2022-10-08T19:27:38.164Z,2.08
2022-10-08T19:30:07.027Z,2.25
2022-10-08T19:32:34.932Z,1.80
2022-10-08T19:35:02.549Z,2.20
2022-10-08T19:37:31.476Z,2.17
2022-10-08T19:39:59.057Z,1.85
2022-10-08T19:42:26.540Z,1.65
2022-10-08T19:44:54.773Z,1.83
2022-10-08T19:47:22.257Z,1.90
2022-10-08T19:49:49.775Z,1.80
2022-10-08T19:52:17.249Z,1.60
2022-10-08T19:54:46.304Z,2.67
2022-10-08T19:57:13.860Z,2.60
2022-10-08T19:59:41.521Z,2.00
2022-10-08T20:02:10.260Z,2.10
2022-10-08T20:04:37.858Z,2.53
2022-10-08T20:07:05.402Z,1.70
2022-10-08T20:09:32.981Z,2.33
2022-10-08T20:12:02.061Z,2.00
2022-10-08T20:14:29.760Z,1.80
2022-10-08T20:16:57.305Z,2.15
2022-10-08T20:19:24.887Z,1.55
2022-10-08T20:21:53.855Z,2.20
2022-10-08T20:24:21.590Z,2.00
2022-10-08T20:26:49.327Z,1.90
2022-10-08T20:29:19.091Z,2.38
2022-10-08T20:31:48.092Z,1.95
2022-10-08T20:34:16.630Z,1.95
2022-10-08T20:36:44.244Z,2.08
2022-10-08T20:39:11.988Z,1.73
2022-10-08T20:41:39.617Z,2.15
2022-10-08T20:44:07.050Z,2.45
2022-10-08T20:46:36.955Z,1.95
2022-10-08T20:49:04.693Z,1.85
2022-10-08T20:51:32.330Z,2.65
2022-10-08T20:54:01.002Z,2.13
2022-10-08T20:56:28.788Z,1.75
2022-10-08T20:58:56.349Z,1.83
2022-10-08T21:01:24.671Z,1.50
2022-10-08T21:03:54.087Z,1.98
2022-10-08T21:06:23.115Z,1.70
2022-10-08T21:08:51.471Z,1.92
2022-10-08T21:11:21.409Z,1.70
2022-10-08T21:13:48.990Z,1.90
2022-10-08T21:16:17.674Z,1.70
2022-10-08T21:18:46.003Z,1.98
2022-10-08T21:21:15.290Z,1.50
2022-10-08T21:23:42.664Z,1.83
2022-10-08T21:26:10.945Z,2.05
2022-10-08T21:28:38.467Z,1.80
2022-10-08T21:31:06.773Z,1.60
2022-10-08T21:33:35.677Z,1.55
2022-10-08T21:36:03.426Z,1.88
2022-10-08T21:38:32.831Z,1.60
2022-10-08T21:41:01.750Z,1.60
2022-10-08T21:43:30.418Z,1.40
2022-10-08T21:45:58.387Z,1.20
2022-10-08T21:48:25.959Z,1.30
2022-10-08T21:50:57.751Z,1.45
2022-10-08T21:53:25.213Z,1.42
2022-10-08T21:55:58.262Z,1.80
2022-10-08T21:58:25.803Z,1.10
2022-10-08T22:00:53.482Z,1.33
2022-10-08T22:03:21.028Z,1.60
2022-10-08T22:05:52.659Z,0.73
2022-10-08T22:08:20.242Z,1.95
2022-10-08T22:10:48.367Z,1.20
2022-10-08T22:13:17.228Z,1.25
2022-10-08T22:15:52.629Z,0.95
2022-10-08T22:18:20.236Z,0.98
2022-10-08T22:20:47.824Z,1.63
2022-10-08T22:23:15.355Z,1.38
2022-10-08T22:25:43.003Z,1.55
2022-10-08T22:28:10.675Z,1.42
2022-10-08T22:30:39.847Z,1.40
2022-10-08T22:33:07.372Z,1.33
2022-10-08T22:35:34.923Z,1.60
2022-10-08T22:38:02.527Z,1.30
2022-10-08T22:40:30.674Z,1.50
2022-10-08T22:42:58.313Z,1.10
2022-10-08T22:45:25.947Z,1.35
2022-10-08T22:47:55.117Z,1.02
2022-10-08T22:50:22.678Z,1.27
2022-10-08T22:52:50.563Z,1.40
2022-10-08T22:55:18.471Z,1.10
2022-10-08T22:57:45.944Z,1.55
2022-10-08T23:00:15.075Z,1.50
2022-10-08T23:02:42.606Z,1.15
2022-10-08T23:05:11.618Z,1.25
2022-10-08T23:07:39.221Z,1.50
2022-10-08T23:10:07.425Z,1.20
2022-10-08T23:12:34.981Z,1.10
2022-10-08T23:15:02.525Z,1.25
2022-10-08T23:17:30.082Z,0.82
2022-10-08T23:19:57.611Z,0.90
2022-10-08T23:22:26.613Z,1.35
2022-10-08T23:24:54.146Z,0.93
2022-10-08T23:27:21.716Z,1.20
2022-10-08T23:29:49.205Z,1.05
2022-10-08T23:32:16.842Z,0.90
2022-10-08T23:34:44.519Z,1.67
2022-10-08T23:37:12.069Z,1.30
2022-10-08T23:39:41.191Z,1.20
2022-10-08T23:42:08.713Z,1.40
2022-10-08T23:44:36.244Z,1.77
2022-10-08T23:47:03.891Z,2.00
2022-10-08T23:49:31.433Z,2.10
2022-10-08T23:51:58.977Z,2.08
2022-10-08T23:54:26.644Z,1.48
2022-10-08T23:56:55.665Z,1.20
2022-10-08T23:59:23.241Z,1.65
